sensor_id;sensor_type;location;lat;lon;timestamp;pressure;altitude;pressure_sealevel;temperature;humidity
21826;BME280;11075;47.944;11.776;2023-12-04T00:01:17;94944.34;;;-13.18;46.76
21826;BME280;11075;47.944;11.776;2023-12-04T00:03:44;94919.00;;;-12.95;48.10
21826;BME280;11075;47.944;11.776;2023-12-04T00:06:12;94903.66;;;-13.05;47.99
21826;BME280;11075;47.944;11.776;2023-12-04T00:08:39;94931.81;;;-12.60;46.78
21826;BME280;11075;47.944;11.776;2023-12-04T00:11:06;94938.81;;;-12.18;45.81
21826;BME280;11075;47.944;11.776;2023-12-04T00:13:33;94950.25;;;-12.38;46.40
21826;BME280;11075;47.944;11.776;2023-12-04T00:16:01;94954.53;;;-12.73;45.79
21826;BME280;11075;47.944;11.776;2023-12-04T00:18:28;94969.38;;;-12.15;43.88
21826;BME280;11075;47.944;11.776;2023-12-04T00:20:56;94944.34;;;-13.18;45.88
21826;BME280;11075;47.944;11.776;2023-12-04T00:23:23;94917.63;;;-13.07;46.79
21826;BME280;11075;47.944;11.776;2023-12-04T00:25:49;94897.38;;;-13.28;47.67
21826;BME280;11075;47.944;11.776;2023-12-04T00:28:16;94911.25;;;-13.21;46.82
21826;BME280;11075;47.944;11.776;2023-12-04T00:30:44;94916.31;;;-12.68;46.10
21826;BME280;11075;47.944;11.776;2023-12-04T00:33:11;94912.25;;;-12.52;46.50
21826;BME280;11075;47.944;11.776;2023-12-04T00:35:38;94902.19;;;-12.38;46.52
21826;BME280;11075;47.944;11.776;2023-12-04T00:38:05;94915.31;;;-12.49;46.65
21826;BME280;11075;47.944;11.776;2023-12-04T00:40:32;94874.31;;;-13.02;48.49
21826;BME280;11075;47.944;11.776;2023-12-04T00:42:59;94862.66;;;-13.14;49.65
21826;BME280;11075;47.944;11.776;2023-12-04T00:45:26;94877.41;;;-12.73;48.34
21826;BME280;11075;47.944;11.776;2023-12-04T00:47:53;94923.09;;;-12.07;46.11
21826;BME280;11075;47.944;11.776;2023-12-04T00:50:20;94941.94;;;-12.32;45.27
21826;BME280;11075;47.944;11.776;2023-12-04T00:52:47;94909.34;;;-12.24;46.60
21826;BME280;11075;47.944;11.776;2023-12-04T00:55:14;94897.44;;;-12.25;46.95
21826;BME280;11075;47.944;11.776;2023-12-04T00:57:41;94957.72;;;-12.53;43.42
21826;BME280;11075;47.944;11.776;2023-12-04T01:00:08;94931.25;;;-13.60;45.55
21826;BME280;11075;47.944;11.776;2023-12-04T01:02:35;94939.72;;;-13.14;44.95
21826;BME280;11075;47.944;11.776;2023-12-04T01:05:02;94883.34;;;-13.69;48.17
21826;BME280;11075;47.944;11.776;2023-12-04T01:07:29;94917.13;;;-12.41;45.55
21826;BME280;11075;47.944;11.776;2023-12-04T01:09:56;94898.31;;;-13.11;46.36
21826;BME280;11075;47.944;11.776;2023-12-04T01:12:22;94886.28;;;-13.29;47.31
21826;BME280;11075;47.944;11.776;2023-12-04T01:14:49;94912.94;;;-12.42;45.68
21826;BME280;11075;47.944;11.776;2023-12-04T01:17:16;94901.16;;;-12.97;46.36
21826;BME280;11075;47.944;11.776;2023-12-04T01:19:43;94872.25;;;-12.99;48.04
21826;BME280;11075;47.944;11.776;2023-12-04T01:22:10;94900.44;;;-12.03;45.34
21826;BME280;11075;47.944;11.776;2023-12-04T01:24:37;94922.25;;;-11.81;44.35
21826;BME280;11075;47.944;11.776;2023-12-04T01:27:04;94913.72;;;-13.11;45.21
21826;BME280;11075;47.944;11.776;2023-12-04T01:29:30;94881.16;;;-13.64;47.15
21826;BME280;11075;47.944;11.776;2023-12-04T01:31:58;94905.13;;;-12.84;45.39
21826;BME280;11075;47.944;11.776;2023-12-04T01:34:25;94920.66;;;-13.75;44.74
21826;BME280;11075;47.944;11.776;2023-12-04T01:36:52;94872.69;;;-14.10;47.89
21826;BME280;11075;47.944;11.776;2023-12-04T01:39:19;94883.91;;;-12.61;45.99
21826;BME280;11075;47.944;11.776;2023-12-04T01:41:46;94877.34;;;-12.81;46.17
21826;BME280;11075;47.944;11.776;2023-12-04T01:44:12;94911.75;;;-13.35;43.84
21826;BME280;11075;47.944;11.776;2023-12-04T01:46:39;94907.16;;;-14.22;45.15
21826;BME280;11075;47.944;11.776;2023-12-04T01:49:07;94881.56;;;-14.04;46.57
21826;BME280;11075;47.944;11.776;2023-12-04T01:51:34;94906.66;;;-13.80;44.56
21826;BME280;11075;47.944;11.776;2023-12-04T01:54:03;94887.66;;;-14.42;45.77
21826;BME280;11075;47.944;11.776;2023-12-04T01:56:31;94883.25;;;-13.95;45.61
21826;BME280;11075;47.944;11.776;2023-12-04T01:58:59;94880.94;;;-14.16;45.17
21826;BME280;11075;47.944;11.776;2023-12-04T02:01:26;94863.72;;;-15.07;46.08
21826;BME280;11075;47.944;11.776;2023-12-04T02:03:54;94880.56;;;-14.21;44.74
21826;BME280;11075;47.944;11.776;2023-12-04T02:06:22;94871.00;;;-14.56;45.42
21826;BME280;11075;47.944;11.776;2023-12-04T02:08:49;94870.41;;;-14.13;45.04
21826;BME280;11075;47.944;11.776;2023-12-04T02:11:16;94862.06;;;-13.08;44.11
21826;BME280;11075;47.944;11.776;2023-12-04T02:13:43;94863.25;;;-13.38;44.10
21826;BME280;11075;47.944;11.776;2023-12-04T02:16:11;94861.69;;;-13.84;44.31
21826;BME280;11075;47.944;11.776;2023-12-04T02:18:42;94859.00;;;-13.47;43.85
21826;BME280;11075;47.944;11.776;2023-12-04T02:21:09;94834.09;;;-13.91;45.43
21826;BME280;11075;47.944;11.776;2023-12-04T02:23:36;94830.19;;;-13.59;44.59
21826;BME280;11075;47.944;11.776;2023-12-04T02:26:09;94842.59;;;-13.90;44.43
21826;BME280;11075;47.944;11.776;2023-12-04T02:28:38;94850.72;;;-13.59;43.88
21826;BME280;11075;47.944;11.776;2023-12-04T02:31:05;94835.47;;;-13.78;44.58
21826;BME280;11075;47.944;11.776;2023-12-04T02:33:34;94806.16;;;-13.94;45.95
21826;BME280;11075;47.944;11.776;2023-12-04T02:36:04;94819.50;;;-14.63;45.89
21826;BME280;11075;47.944;11.776;2023-12-04T02:38:32;94820.56;;;-13.39;44.33
21826;BME280;11075;47.944;11.776;2023-12-04T02:40:59;94803.69;;;-14.31;45.96
21826;BME280;11075;47.944;11.776;2023-12-04T02:43:26;94802.78;;;-13.94;45.60
21826;BME280;11075;47.944;11.776;2023-12-04T02:45:53;94800.31;;;-14.86;46.10
21826;BME280;11075;47.944;11.776;2023-12-04T02:48:19;94809.34;;;-13.56;45.43
21826;BME280;11075;47.944;11.776;2023-12-04T02:50:46;94824.03;;;-14.84;44.46
21826;BME280;11075;47.944;11.776;2023-12-04T02:53:13;94833.66;;;-15.05;43.83
21826;BME280;11075;47.944;11.776;2023-12-04T02:55:40;94801.41;;;-14.98;45.21
21826;BME280;11075;47.944;11.776;2023-12-04T02:58:07;94789.19;;;-13.87;45.69
21826;BME280;11075;47.944;11.776;2023-12-04T03:00:34;94776.25;;;-14.03;45.50
21826;BME280;11075;47.944;11.776;2023-12-04T03:03:00;94780.09;;;-13.81;45.44
21826;BME280;11075;47.944;11.776;2023-12-04T03:05:27;94792.34;;;-14.10;44.35
21826;BME280;11075;47.944;11.776;2023-12-04T03:07:54;94812.09;;;-13.93;43.95
21826;BME280;11075;47.944;11.776;2023-12-04T03:10:21;94809.28;;;-13.82;43.84
21826;BME280;11075;47.944;11.776;2023-12-04T03:12:48;94812.78;;;-13.30;43.18
21826;BME280;11075;47.944;11.776;2023-12-04T03:15:15;94783.97;;;-13.59;44.45
21826;BME280;11075;47.944;11.776;2023-12-04T03:17:41;94749.63;;;-14.92;46.81
21826;BME280;11075;47.944;11.776;2023-12-04T03:20:09;94795.53;;;-14.44;43.83
21826;BME280;11075;47.944;11.776;2023-12-04T03:22:36;94797.06;;;-14.06;43.03
21826;BME280;11075;47.944;11.776;2023-12-04T03:25:04;94787.50;;;-13.78;43.23
21826;BME280;11075;47.944;11.776;2023-12-04T03:27:31;94764.69;;;-13.63;44.38
21826;BME280;11075;47.944;11.776;2023-12-04T03:29:57;94781.97;;;-13.91;43.93
21826;BME280;11075;47.944;11.776;2023-12-04T03:32:24;94804.44;;;-13.49;42.09
21826;BME280;11075;47.944;11.776;2023-12-04T03:34:51;94792.28;;;-14.01;43.32
21826;BME280;11075;47.944;11.776;2023-12-04T03:37:18;94749.84;;;-14.31;45.25
21826;BME280;11075;47.944;11.776;2023-12-04T03:39:45;94734.75;;;-14.34;46.27
21826;BME280;11075;47.944;11.776;2023-12-04T03:42:12;94714.69;;;-14.03;46.41
21826;BME280;11075;47.944;11.776;2023-12-04T03:44:38;94744.47;;;-13.14;44.06
21826;BME280;11075;47.944;11.776;2023-12-04T03:47:05;94770.06;;;-13.31;42.90
21826;BME280;11075;47.944;11.776;2023-12-04T03:49:32;94734.63;;;-14.14;45.52
21826;BME280;11075;47.944;11.776;2023-12-04T03:51:59;94738.78;;;-13.52;45.12
21826;BME280;11075;47.944;11.776;2023-12-04T03:54:26;94738.44;;;-13.31;44.77
21826;BME280;11075;47.944;11.776;2023-12-04T03:56:53;94746.06;;;-12.88;43.73
21826;BME280;11075;47.944;11.776;2023-12-04T03:59:20;94763.53;;;-12.99;42.74
21826;BME280;11075;47.944;11.776;2023-12-04T04:01:46;94771.25;;;-14.22;42.71
21826;BME280;11075;47.944;11.776;2023-12-04T04:04:13;94742.53;;;-14.08;43.71
21826;BME280;11075;47.944;11.776;2023-12-04T04:06:40;94759.38;;;-14.68;43.38
21826;BME280;11075;47.944;11.776;2023-12-04T04:09:07;94734.59;;;-14.32;44.46
21826;BME280;11075;47.944;11.776;2023-12-04T04:11:34;94729.69;;;-14.43;45.19
21826;BME280;11075;47.944;11.776;2023-12-04T04:14:02;94743.53;;;-13.83;42.68
21826;BME280;11075;47.944;11.776;2023-12-04T04:16:28;94730.19;;;-14.58;44.48
21826;BME280;11075;47.944;11.776;2023-12-04T04:18:55;94688.81;;;-14.27;46.76
21826;BME280;11075;47.944;11.776;2023-12-04T04:21:22;94703.75;;;-14.40;45.06
21826;BME280;11075;47.944;11.776;2023-12-04T04:23:49;94735.78;;;-13.47;42.53
21826;BME280;11075;47.944;11.776;2023-12-04T04:26:16;94717.69;;;-14.43;44.41
21826;BME280;11075;47.944;11.776;2023-12-04T04:28:43;94693.44;;;-14.31;45.96
21826;BME280;11075;47.944;11.776;2023-12-04T04:31:09;94681.69;;;-13.98;46.38
21826;BME280;11075;47.944;11.776;2023-12-04T04:33:36;94708.72;;;-13.08;44.25
21826;BME280;11075;47.944;11.776;2023-12-04T04:36:04;94741.38;;;-13.70;42.88
21826;BME280;11075;47.944;11.776;2023-12-04T04:38:31;94728.72;;;-14.42;43.55
21826;BME280;11075;47.944;11.776;2023-12-04T04:40:57;94697.91;;;-14.15;45.53
21826;BME280;11075;47.944;11.776;2023-12-04T04:43:24;94687.91;;;-14.71;45.54
21826;BME280;11075;47.944;11.776;2023-12-04T04:45:51;94707.66;;;-14.18;44.00
21826;BME280;11075;47.944;11.776;2023-12-04T04:48:18;94741.19;;;-14.47;41.80
21826;BME280;11075;47.944;11.776;2023-12-04T04:50:46;94710.66;;;-13.79;43.73
21826;BME280;11075;47.944;11.776;2023-12-04T04:53:13;94702.75;;;-13.86;43.91
21826;BME280;11075;47.944;11.776;2023-12-04T04:55:40;94724.97;;;-12.99;42.55
21826;BME280;11075;47.944;11.776;2023-12-04T04:58:15;94736.88;;;-13.24;41.91
21826;BME280;11075;47.944;11.776;2023-12-04T05:00:43;94704.19;;;-13.92;42.72
21826;BME280;11075;47.944;11.776;2023-12-04T05:03:10;94693.47;;;-14.76;44.75
21826;BME280;11075;47.944;11.776;2023-12-04T05:05:37;94670.59;;;-14.42;45.84
21826;BME280;11075;47.944;11.776;2023-12-04T05:08:04;94693.22;;;-14.20;43.66
21826;BME280;11075;47.944;11.776;2023-12-04T05:10:31;94703.59;;;-14.57;43.96
21826;BME280;11075;47.944;11.776;2023-12-04T05:12:58;94704.41;;;-14.38;43.51
21826;BME280;11075;47.944;11.776;2023-12-04T05:15:25;94697.81;;;-14.05;42.96
21826;BME280;11075;47.944;11.776;2023-12-04T05:17:53;94693.47;;;-13.61;42.76
21826;BME280;11075;47.944;11.776;2023-12-04T05:20:20;94659.91;;;-15.00;45.52
21826;BME280;11075;47.944;11.776;2023-12-04T05:22:47;94639.53;;;-14.57;46.17
21826;BME280;11075;47.944;11.776;2023-12-04T05:25:15;94588.34;;;-14.48;48.94
21826;BME280;11075;47.944;11.776;2023-12-04T05:27:42;94589.94;;;-14.30;47.67
21826;BME280;11075;47.944;11.776;2023-12-04T05:30:09;94653.44;;;-12.70;44.22
21826;BME280;11075;47.944;11.776;2023-12-04T05:32:36;94681.16;;;-12.90;43.02
21826;BME280;11075;47.944;11.776;2023-12-04T05:35:03;94682.56;;;-13.63;44.15
21826;BME280;11075;47.944;11.776;2023-12-04T05:37:30;94661.81;;;-13.44;44.50
21826;BME280;11075;47.944;11.776;2023-12-04T05:39:56;94684.31;;;-12.62;42.91
21826;BME280;11075;47.944;11.776;2023-12-04T05:42:23;94669.34;;;-14.20;44.25
21826;BME280;11075;47.944;11.776;2023-12-04T05:44:51;94647.13;;;-13.86;44.93
21826;BME280;11075;47.944;11.776;2023-12-04T05:47:22;94655.69;;;-13.77;43.74
21826;BME280;11075;47.944;11.776;2023-12-04T05:49:48;94669.03;;;-13.99;43.33
21826;BME280;11075;47.944;11.776;2023-12-04T05:52:15;94682.34;;;-13.44;42.84
21826;BME280;11075;47.944;11.776;2023-12-04T05:54:42;94685.56;;;-13.42;42.47
21826;BME280;11075;47.944;11.776;2023-12-04T05:57:09;94671.09;;;-12.75;43.01
21826;BME280;11075;47.944;11.776;2023-12-04T05:59:36;94682.19;;;-13.68;43.56
21826;BME280;11075;47.944;11.776;2023-12-04T06:02:03;94673.66;;;-13.17;42.54
21826;BME280;11075;47.944;11.776;2023-12-04T06:04:30;94690.84;;;-13.69;42.71
21826;BME280;11075;47.944;11.776;2023-12-04T06:06:56;94667.84;;;-12.85;43.17
21826;BME280;11075;47.944;11.776;2023-12-04T06:09:23;94675.66;;;-13.03;42.08
21826;BME280;11075;47.944;11.776;2023-12-04T06:11:50;94675.75;;;-13.98;42.96
21826;BME280;11075;47.944;11.776;2023-12-04T06:14:17;94663.81;;;-14.07;42.81
21826;BME280;11075;47.944;11.776;2023-12-04T06:16:44;94670.91;;;-13.24;42.13
21826;BME280;11075;47.944;11.776;2023-12-04T06:19:11;94633.47;;;-13.94;44.77
21826;BME280;11075;47.944;11.776;2023-12-04T06:21:39;94620.25;;;-13.73;44.86
21826;BME280;11075;47.944;11.776;2023-12-04T06:24:07;94649.66;;;-13.00;42.62
21826;BME280;11075;47.944;11.776;2023-12-04T06:26:36;94665.22;;;-13.35;42.12
21826;BME280;11075;47.944;11.776;2023-12-04T06:29:07;94641.84;;;-13.84;44.01
21826;BME280;11075;47.944;11.776;2023-12-04T06:31:35;94585.66;;;-14.21;46.59
21826;BME280;11075;47.944;11.776;2023-12-04T06:34:02;94554.00;;;-14.56;48.29
21826;BME280;11075;47.944;11.776;2023-12-04T06:36:31;94567.22;;;-13.23;46.73
21826;BME280;11075;47.944;11.776;2023-12-04T06:39:02;94591.44;;;-12.67;44.86
21826;BME280;11075;47.944;11.776;2023-12-04T06:41:31;94617.69;;;-12.14;43.26
21826;BME280;11075;47.944;11.776;2023-12-04T06:43:58;94595.53;;;-13.48;45.26
21826;BME280;11075;47.944;11.776;2023-12-04T06:46:27;94585.91;;;-12.96;44.96
21826;BME280;11075;47.944;11.776;2023-12-04T06:48:59;94597.41;;;-13.93;44.41
21826;BME280;11075;47.944;11.776;2023-12-04T06:51:26;94576.47;;;-14.06;45.93
21826;BME280;11075;47.944;11.776;2023-12-04T06:53:53;94529.44;;;-13.80;47.73
21826;BME280;11075;47.944;11.776;2023-12-04T06:56:20;94565.75;;;-12.50;44.73
21826;BME280;11075;47.944;11.776;2023-12-04T06:58:46;94591.06;;;-12.88;43.55
21826;BME280;11075;47.944;11.776;2023-12-04T07:01:13;94600.31;;;-12.37;42.75
21826;BME280;11075;47.944;11.776;2023-12-04T07:03:40;94620.22;;;-11.66;41.93
21826;BME280;11075;47.944;11.776;2023-12-04T07:06:08;94623.09;;;-11.69;41.97
21826;BME280;11075;47.944;11.776;2023-12-04T07:08:34;94599.59;;;-12.79;43.28
21826;BME280;11075;47.944;11.776;2023-12-04T07:11:01;94575.38;;;-12.69;44.68
21826;BME280;11075;47.944;11.776;2023-12-04T07:13:28;94597.69;;;-11.80;42.60
21826;BME280;11075;47.944;11.776;2023-12-04T07:15:55;94622.50;;;-12.36;42.38
21826;BME280;11075;47.944;11.776;2023-12-04T07:18:22;94612.00;;;-12.67;42.15
21826;BME280;11075;47.944;11.776;2023-12-04T07:20:48;94606.56;;;-12.15;42.35
21826;BME280;11075;47.944;11.776;2023-12-04T07:23:15;94594.31;;;-11.80;42.44
21826;BME280;11075;47.944;11.776;2023-12-04T07:25:42;94574.09;;;-12.08;42.95
21826;BME280;11075;47.944;11.776;2023-12-04T07:28:09;94593.03;;;-12.74;42.05
21826;BME280;11075;47.944;11.776;2023-12-04T07:30:36;94574.59;;;-13.28;43.73
21826;BME280;11075;47.944;11.776;2023-12-04T07:33:03;94586.63;;;-11.97;42.32
21826;BME280;11075;47.944;11.776;2023-12-04T07:35:32;94594.34;;;-12.05;41.62
21826;BME280;11075;47.944;11.776;2023-12-04T07:38:00;94595.94;;;-11.79;40.69
21826;BME280;11075;47.944;11.776;2023-12-04T07:40:27;94560.59;;;-12.50;42.43
21826;BME280;11075;47.944;11.776;2023-12-04T07:42:53;94544.81;;;-12.07;42.95
21826;BME280;11075;47.944;11.776;2023-12-04T07:45:20;94541.78;;;-11.47;42.75
21826;BME280;11075;47.944;11.776;2023-12-04T07:47:48;94540.00;;;-12.10;43.51
21826;BME280;11075;47.944;11.776;2023-12-04T07:50:15;94566.69;;;-11.95;41.95
21826;BME280;11075;47.944;11.776;2023-12-04T07:52:41;94536.75;;;-11.96;43.17
21826;BME280;11075;47.944;11.776;2023-12-04T07:55:08;94547.31;;;-11.74;42.21
21826;BME280;11075;47.944;11.776;2023-12-04T07:57:35;94562.19;;;-12.09;42.33
21826;BME280;11075;47.944;11.776;2023-12-04T08:00:02;94556.16;;;-11.69;42.50
21826;BME280;11075;47.944;11.776;2023-12-04T08:02:29;94524.25;;;-11.20;42.94
21826;BME280;11075;47.944;11.776;2023-12-04T08:04:58;94553.03;;;-10.32;41.05
21826;BME280;11075;47.944;11.776;2023-12-04T08:07:25;94569.66;;;-10.57;41.27
21826;BME280;11075;47.944;11.776;2023-12-04T08:09:52;94562.88;;;-11.12;41.38
21826;BME280;11075;47.944;11.776;2023-12-04T08:12:20;94561.34;;;-10.68;41.67
21826;BME280;11075;47.944;11.776;2023-12-04T08:14:47;94571.47;;;-10.20;40.97
21826;BME280;11075;47.944;11.776;2023-12-04T08:17:14;94573.25;;;-10.67;41.56
21826;BME280;11075;47.944;11.776;2023-12-04T08:19:41;94566.22;;;-9.75;41.43
21826;BME280;11075;47.944;11.776;2023-12-04T08:22:08;94553.69;;;-10.15;41.94
21826;BME280;11075;47.944;11.776;2023-12-04T08:24:35;94571.34;;;-10.04;41.01
21826;BME280;11075;47.944;11.776;2023-12-04T08:27:02;94553.03;;;-10.78;42.54
21826;BME280;11075;47.944;11.776;2023-12-04T08:29:29;94556.63;;;-9.66;41.78
21826;BME280;11075;47.944;11.776;2023-12-04T08:31:56;94530.25;;;-10.29;42.64
21826;BME280;11075;47.944;11.776;2023-12-04T08:34:23;94518.69;;;-10.33;44.03
21826;BME280;11075;47.944;11.776;2023-12-04T08:36:50;94497.22;;;-10.71;44.36
21826;BME280;11075;47.944;11.776;2023-12-04T08:39:16;94550.53;;;-9.14;41.40
21826;BME280;11075;47.944;11.776;2023-12-04T08:41:46;94554.94;;;-9.44;41.92
21826;BME280;11075;47.944;11.776;2023-12-04T08:44:27;94540.94;;;-9.79;42.31
21826;BME280;11075;47.944;11.776;2023-12-04T08:46:54;94533.38;;;-9.37;42.46
21826;BME280;11075;47.944;11.776;2023-12-04T08:49:24;94536.72;;;-9.21;41.96
21826;BME280;11075;47.944;11.776;2023-12-04T08:52:05;94543.88;;;-8.51;41.79
21826;BME280;11075;47.944;11.776;2023-12-04T08:54:32;94512.91;;;-8.81;42.90
21826;BME280;11075;47.944;11.776;2023-12-04T08:57:00;94549.66;;;-7.79;40.87
21826;BME280;11075;47.944;11.776;2023-12-04T08:59:28;94534.91;;;-8.06;41.31
21826;BME280;11075;47.944;11.776;2023-12-04T09:01:55;94524.28;;;-8.96;42.12
21826;BME280;11075;47.944;11.776;2023-12-04T09:04:22;94508.44;;;-8.29;42.77
21826;BME280;11075;47.944;11.776;2023-12-04T09:06:49;94531.88;;;-7.54;41.69
21826;BME280;11075;47.944;11.776;2023-12-04T09:09:19;94530.09;;;-7.81;42.03
21826;BME280;11075;47.944;11.776;2023-12-04T09:11:46;94513.50;;;-7.59;43.00
21826;BME280;11075;47.944;11.776;2023-12-04T09:14:14;94520.25;;;-6.76;41.74
21826;BME280;11075;47.944;11.776;2023-12-04T09:16:41;94515.25;;;-6.77;41.97
21826;BME280;11075;47.944;11.776;2023-12-04T09:19:08;94494.91;;;-8.25;44.42
21826;BME280;11075;47.944;11.776;2023-12-04T09:21:35;94497.13;;;-8.22;43.61
21826;BME280;11075;47.944;11.776;2023-12-04T09:24:02;94487.72;;;-8.51;43.51
21826;BME280;11075;47.944;11.776;2023-12-04T09:26:29;94481.00;;;-8.45;44.54
21826;BME280;11075;47.944;11.776;2023-12-04T09:28:57;94484.59;;;-8.46;43.75
21826;BME280;11075;47.944;11.776;2023-12-04T09:31:24;94472.81;;;-8.91;45.15
21826;BME280;11075;47.944;11.776;2023-12-04T09:33:51;94469.81;;;-7.96;44.52
21826;BME280;11075;47.944;11.776;2023-12-04T09:36:18;94518.09;;;-6.59;42.09
21826;BME280;11075;47.944;11.776;2023-12-04T09:38:45;94535.13;;;-5.90;40.60
21826;BME280;11075;47.944;11.776;2023-12-04T09:41:15;94517.75;;;-6.23;41.68
21826;BME280;11075;47.944;11.776;2023-12-04T09:43:44;94523.34;;;-5.99;40.89
21826;BME280;11075;47.944;11.776;2023-12-04T09:46:11;94495.16;;;-6.02;42.34
21826;BME280;11075;47.944;11.776;2023-12-04T09:48:40;94467.78;;;-6.51;43.72
21826;BME280;11075;47.944;11.776;2023-12-04T09:51:10;94463.13;;;-6.82;43.87
21826;BME280;11075;47.944;11.776;2023-12-04T09:53:38;94469.56;;;-6.45;43.31
21826;BME280;11075;47.944;11.776;2023-12-04T09:56:07;94502.34;;;-5.91;41.76
21826;BME280;11075;47.944;11.776;2023-12-04T09:58:39;94488.53;;;-5.72;41.71
21826;BME280;11075;47.944;11.776;2023-12-04T10:01:07;94472.38;;;-6.07;42.29
21826;BME280;11075;47.944;11.776;2023-12-04T10:03:35;94459.78;;;-6.10;42.25
21826;BME280;11075;47.944;11.776;2023-12-04T10:06:02;94446.19;;;-6.12;43.09
21826;BME280;11075;47.944;11.776;2023-12-04T10:08:31;94466.81;;;-5.33;41.87
21826;BME280;11075;47.944;11.776;2023-12-04T10:10:57;94471.25;;;-4.89;41.38
21826;BME280;11075;47.944;11.776;2023-12-04T10:13:27;94465.56;;;-5.17;41.50
21826;BME280;11075;47.944;11.776;2023-12-04T10:16:13;94452.09;;;-5.59;42.80
21826;BME280;11075;47.944;11.776;2023-12-04T10:18:40;94484.22;;;-4.44;40.38
21826;BME280;11075;47.944;11.776;2023-12-04T10:21:07;94476.84;;;-5.36;41.26
21826;BME280;11075;47.944;11.776;2023-12-04T10:23:44;94448.44;;;-5.38;42.28
21826;BME280;11075;47.944;11.776;2023-12-04T10:26:14;94446.50;;;-5.04;42.48
21826;BME280;11075;47.944;11.776;2023-12-04T10:28:59;94448.75;;;-4.45;41.08
21826;BME280;11075;47.944;11.776;2023-12-04T10:31:31;94442.94;;;-4.47;41.69
21826;BME280;11075;47.944;11.776;2023-12-04T10:33:58;94413.78;;;-5.25;43.57
21826;BME280;11075;47.944;11.776;2023-12-04T10:36:25;94410.56;;;-5.27;43.61
21826;BME280;11075;47.944;11.776;2023-12-04T10:38:58;94381.91;;;-5.59;44.43
21826;BME280;11075;47.944;11.776;2023-12-04T10:41:27;94384.22;;;-5.37;44.05
21826;BME280;11075;47.944;11.776;2023-12-04T10:43:55;94400.38;;;-4.91;43.10
21826;BME280;11075;47.944;11.776;2023-12-04T10:46:35;94369.09;;;-5.60;45.52
21826;BME280;11075;47.944;11.776;2023-12-04T10:49:04;94336.28;;;-6.13;46.74
21826;BME280;11075;47.944;11.776;2023-12-04T10:51:33;94307.19;;;-6.48;48.73
21826;BME280;11075;47.944;11.776;2023-12-04T10:54:01;94367.44;;;-4.29;44.46
21826;BME280;11075;47.944;11.776;2023-12-04T10:56:35;94386.47;;;-3.85;43.27
21826;BME280;11075;47.944;11.776;2023-12-04T10:59:11;94338.19;;;-5.05;45.44
21826;BME280;11075;47.944;11.776;2023-12-04T11:01:41;94330.28;;;-5.17;46.58
21826;BME280;11075;47.944;11.776;2023-12-04T11:04:14;94316.47;;;-5.56;47.02
21826;BME280;11075;47.944;11.776;2023-12-04T11:06:45;94296.19;;;-6.43;48.67
21826;BME280;11075;47.944;11.776;2023-12-04T11:09:17;94335.31;;;-5.22;46.47
21826;BME280;11075;47.944;11.776;2023-12-04T11:11:48;94341.38;;;-5.03;45.62
21826;BME280;11075;47.944;11.776;2023-12-04T11:14:21;94313.25;;;-4.20;46.04
21826;BME280;11075;47.944;11.776;2023-12-04T11:16:52;94362.22;;;-3.19;43.73
21826;BME280;11075;47.944;11.776;2023-12-04T11:20:09;94327.31;;;-4.46;45.06
21826;BME280;11075;47.944;11.776;2023-12-04T11:22:17;94336.31;;;-3.51;43.94
21826;BME280;11075;47.944;11.776;2023-12-04T11:24:47;94322.84;;;-3.48;44.23
21826;BME280;11075;47.944;11.776;2023-12-04T11:27:16;94331.50;;;-3.35;43.41
21826;BME280;11075;47.944;11.776;2023-12-04T11:29:48;94321.53;;;-3.38;43.48
21826;BME280;11075;47.944;11.776;2023-12-04T11:32:15;94326.34;;;-3.72;44.22
21826;BME280;11075;47.944;11.776;2023-12-04T11:34:55;94308.25;;;-3.85;44.03
21826;BME280;11075;47.944;11.776;2023-12-04T11:37:26;94313.50;;;-3.25;43.30
21826;BME280;11075;47.944;11.776;2023-12-04T11:39:53;94300.91;;;-3.58;44.25
21826;BME280;11075;47.944;11.776;2023-12-04T11:42:23;94288.16;;;-3.36;44.08
21826;BME280;11075;47.944;11.776;2023-12-04T11:44:57;94303.28;;;-3.27;43.01
21826;BME280;11075;47.944;11.776;2023-12-04T11:47:27;94299.03;;;-3.09;43.28
21826;BME280;11075;47.944;11.776;2023-12-04T11:49:54;94286.88;;;-3.46;43.70
21826;BME280;11075;47.944;11.776;2023-12-04T11:52:32;94243.41;;;-4.91;46.87
21826;BME280;11075;47.944;11.776;2023-12-04T11:55:04;94303.88;;;-2.60;43.04
21826;BME280;11075;47.944;11.776;2023-12-04T11:57:40;94311.16;;;-2.38;42.29
21826;BME280;11075;47.944;11.776;2023-12-04T12:05:39;94297.06;;;-2.72;43.22
21826;BME280;11075;47.944;11.776;2023-12-04T12:08:08;94318.44;;;-2.17;42.33
21826;BME280;11075;47.944;11.776;2023-12-04T12:10:37;94311.41;;;-2.28;42.55
21826;BME280;11075;47.944;11.776;2023-12-04T12:13:04;94290.53;;;-3.05;43.53
21826;BME280;11075;47.944;11.776;2023-12-04T12:15:32;94296.84;;;-2.59;43.47
21826;BME280;11075;47.944;11.776;2023-12-04T12:18:00;94291.63;;;-2.24;42.65
21826;BME280;11075;47.944;11.776;2023-12-04T12:20:27;94292.06;;;-2.39;42.79
21826;BME280;11075;47.944;11.776;2023-12-04T12:22:54;94275.69;;;-2.81;44.48
21826;BME280;11075;47.944;11.776;2023-12-04T12:25:21;94281.16;;;-2.59;44.03
21826;BME280;11075;47.944;11.776;2023-12-04T12:27:50;94205.69;;;-4.46;48.49
21826;BME280;11075;47.944;11.776;2023-12-04T12:30:17;94263.91;;;-2.72;44.84
21826;BME280;11075;47.944;11.776;2023-12-04T12:32:44;94276.41;;;-2.62;44.69
21826;BME280;11075;47.944;11.776;2023-12-04T12:35:11;94252.59;;;-3.19;45.88
21826;BME280;11075;47.944;11.776;2023-12-04T12:37:39;94214.06;;;-4.07;47.53
21826;BME280;11075;47.944;11.776;2023-12-04T12:40:06;94239.53;;;-3.19;46.53
21826;BME280;11075;47.944;11.776;2023-12-04T12:42:37;94267.19;;;-2.53;44.48
21826;BME280;11075;47.944;11.776;2023-12-04T12:45:11;94183.19;;;-4.58;48.76
21826;BME280;11075;47.944;11.776;2023-12-04T12:47:42;94235.28;;;-2.67;45.81
21826;BME280;11075;47.944;11.776;2023-12-04T12:50:10;94246.63;;;-2.61;45.33
21826;BME280;11075;47.944;11.776;2023-12-04T12:52:42;94213.16;;;-3.41;47.73